Time;durP1;ratioP1;P1;durP2;ratioP2;P2;SDS_P1;SDS_P2;PMS_P1;PMS_P2;Temp;Humidity;BMP_temperature;BMP_pressure;BME280_temperature;BME280_humidity;BME280_pressure;Samples;Min_cycle;Max_cycle;Signal;HPM_P1;HPM_P2
2023/10/17 00:01:34;;;;;;;27.48;6.82;;;12.70;82.90;;;;;;5066975;28;20112;-53
2023/10/17 00:06:44;;;;;;;20.20;6.55;;;12.60;83.00;;;;;;5050788;28;20032;-53
2023/10/17 00:09:10;;;;;;;25.48;6.30;;;12.60;83.00;;;;;;5032697;28;20112;-52
2023/10/17 00:14:26;;;;;;;19.15;6.30;;;12.60;83.00;;;;;;5067013;28;20033;-52
2023/10/17 00:16:55;;;;;;;19.23;5.32;;;12.60;83.10;;;;;;5033685;28;20033;-53
2023/10/17 00:19:31;;;;;;;20.30;6.25;;;12.50;83.00;;;;;;5049570;28;20051;-52
2023/10/17 00:22:02;;;;;;;20.20;6.03;;;12.50;83.10;;;;;;5050291;28;20040;-52
2023/10/17 00:24:28;;;;;;;24.38;5.70;;;12.50;83.70;;;;;;5049542;28;20021;-52
2023/10/17 00:26:53;;;;;;;17.02;5.40;;;12.50;83.10;;;;;;5049100;28;20040;-52
2023/10/17 00:29:19;;;;;;;15.93;5.45;;;12.50;83.10;;;;;;5049149;28;20021;-52
2023/10/17 00:31:46;;;;;;;19.10;5.80;;;12.40;83.00;;;;;;5048715;28;20031;-52
2023/10/17 00:34:21;;;;;;;19.65;5.10;;;12.60;83.10;;;;;;5066824;28;20025;-52
2023/10/17 00:36:49;;;;;;;18.85;5.10;;;12.50;83.00;;;;;;5048698;28;20041;-52
2023/10/17 00:39:30;;;;;;;13.80;5.15;;;12.40;83.10;;;;;;5032515;28;20029;-53
2023/10/17 00:44:40;;;;;;;21.17;5.88;;;12.30;83.10;;;;;;5049581;28;20021;-52
2023/10/17 00:47:11;;;;;;;15.63;5.70;;;12.30;83.30;;;;;;5050113;28;20057;-52
2023/10/17 00:49:44;;;;;;;15.88;5.10;;;12.30;83.20;;;;;;5049176;28;20035;-52
2023/10/17 00:52:19;;;;;;;11.80;4.82;;;12.30;83.30;;;;;;5049758;28;20479;-52
2023/10/17 00:54:49;;;;;;;18.50;5.00;;;12.30;83.30;;;;;;5066749;28;20029;-53
2023/10/17 00:57:15;;;;;;;12.93;4.70;;;12.30;83.40;;;;;;5049067;28;20044;-52
2023/10/17 00:59:49;;;;;;;11.98;4.57;;;12.20;83.30;;;;;;5048811;28;20054;-52
2023/10/17 01:02:15;;;;;;;13.05;4.75;;;12.20;83.40;;;;;;5052657;28;20062;-52
2023/10/17 01:04:44;;;;;;;15.55;4.78;;;12.20;83.50;;;;;;5068670;28;20116;-52
2023/10/17 01:07:23;;;;;;;12.15;4.57;;;12.20;83.40;;;;;;5068788;28;20055;-52
2023/10/17 01:09:55;;;;;;;13.43;4.05;;;12.20;83.50;;;;;;5086467;28;20077;-52
2023/10/17 01:12:21;;;;;;;17.02;5.15;;;12.20;83.50;;;;;;5068821;28;20040;-53
2023/10/17 01:14:46;;;;;;;11.32;4.55;;;12.10;83.50;;;;;;5068391;28;20024;-52
2023/10/17 01:17:18;;;;;;;12.93;5.05;;;12.10;83.50;;;;;;5086046;28;20047;-52
2023/10/17 01:19:44;;;;;;;12.10;4.72;;;12.10;83.50;;;;;;5069265;28;20413;-52
2023/10/17 01:22:09;;;;;;;13.68;4.30;;;12.10;83.40;;;;;;5067719;28;20039;-52
2023/10/17 01:24:35;;;;;;;14.45;4.95;;;12.10;83.50;;;;;;5086166;28;20051;-52
2023/10/17 01:27:06;;;;;;;12.77;4.55;;;12.00;83.50;;;;;;5086244;28;20028;-52
2023/10/17 01:29:32;;;;;;;10.02;4.63;;;12.00;83.50;;;;;;5086047;28;20025;-52
2023/10/17 01:31:59;;;;;;;14.20;4.40;;;12.00;83.60;;;;;;5068125;28;20041;-53
2023/10/17 01:34:25;;;;;;;12.27;4.53;;;12.00;83.70;;;;;;5086234;28;20035;-52
2023/10/17 01:36:50;;;;;;;8.10;4.03;;;12.00;83.70;;;;;;5068248;28;20037;-52
2023/10/17 01:39:16;;;;;;;10.10;4.10;;;12.00;83.70;;;;;;5086401;28;20025;-52
2023/10/17 01:41:46;;;;;;;9.52;4.35;;;11.90;83.70;;;;;;5067760;28;20036;-53
2023/10/17 01:44:12;;;;;;;9.35;4.75;;;11.90;83.80;;;;;;5068659;28;20021;-52
2023/10/17 01:46:38;;;;;;;13.00;4.20;;;11.90;83.80;;;;;;5068079;28;20502;-52
2023/10/17 01:49:10;;;;;;;10.15;4.25;;;11.90;83.80;;;;;;5085841;28;20028;-52
2023/10/17 01:51:35;;;;;;;9.18;4.28;;;11.90;83.90;;;;;;5085639;28;20044;-52
2023/10/17 01:54:07;;;;;;;11.60;4.47;;;11.90;83.90;;;;;;5085889;28;20025;-52
2023/10/17 01:56:32;;;;;;;7.00;3.70;;;11.80;83.80;;;;;;5069102;28;20040;-52
2023/10/17 01:59:04;;;;;;;11.10;4.88;;;11.90;83.90;;;;;;5068318;28;20052;-52
2023/10/17 02:01:31;;;;;;;9.82;4.35;;;11.80;84.00;;;;;;5069260;28;20507;-52
2023/10/17 02:04:03;;;;;;;11.85;4.40;;;11.80;84.00;;;;;;5085911;28;20017;-52
2023/10/17 02:06:30;;;;;;;9.73;3.92;;;11.80;84.00;;;;;;5069014;28;20115;-52
2023/10/17 02:08:58;;;;;;;6.20;3.83;;;11.80;84.00;;;;;;5068270;28;20400;-52
2023/10/17 02:11:24;;;;;;;10.32;4.68;;;11.70;84.00;;;;;;5085639;28;20128;-52
2023/10/17 02:13:52;;;;;;;10.60;4.18;;;11.70;84.00;;;;;;5085497;28;20354;-52
2023/10/17 02:16:17;;;;;;;9.27;4.57;;;11.70;84.00;;;;;;5085648;28;20033;-52
2023/10/17 02:18:44;;;;;;;8.35;5.13;;;11.70;84.10;;;;;;5085595;28;20059;-52
2023/10/17 02:21:12;;;;;;;10.18;4.93;;;11.70;84.10;;;;;;5085374;28;20037;-52
2023/10/17 02:23:43;;;;;;;12.48;5.13;;;11.70;84.10;;;;;;5067867;28;20017;-52
2023/10/17 02:26:11;;;;;;;9.05;5.10;;;11.70;84.20;;;;;;5068413;28;20035;-52
2023/10/17 02:28:46;;;;;;;7.60;4.95;;;11.60;84.20;;;;;;5068236;28;20028;-52
2023/10/17 02:31:15;;;;;;;8.77;5.25;;;11.70;84.20;;;;;;5089050;28;20039;-52
2023/10/17 02:33:42;;;;;;;12.07;4.95;;;11.60;84.10;;;;;;5089342;28;20107;-52
2023/10/17 02:36:09;;;;;;;10.32;4.95;;;11.70;84.10;;;;;;5071111;28;20036;-52
2023/10/17 02:38:34;;;;;;;7.05;4.82;;;11.60;84.80;;;;;;5071119;28;20024;-52
2023/10/17 02:41:01;;;;;;;11.65;4.90;;;11.60;84.20;;;;;;5088618;28;20032;-52
2023/10/17 02:43:28;;;;;;;9.23;4.43;;;11.50;84.20;;;;;;5054042;28;20016;-52
2023/10/17 02:45:54;;;;;;;9.10;4.47;;;11.60;84.30;;;;;;5070712;28;20029;-52
2023/10/17 02:48:26;;;;;;;6.70;4.65;;;11.60;84.40;;;;;;5088835;28;20032;-52
2023/10/17 02:51:01;;;;;;;8.57;4.53;;;11.50;84.40;;;;;;5071364;28;20029;-52
2023/10/17 02:53:29;;;;;;;7.47;4.82;;;11.50;84.50;;;;;;5071834;28;20021;-52
2023/10/17 02:55:57;;;;;;;7.38;5.00;;;11.50;84.50;;;;;;5071056;28;20040;-52
2023/10/17 02:58:22;;;;;;;7.07;4.80;;;11.50;84.50;;;;;;5070847;28;20016;-51
2023/10/17 03:00:48;;;;;;;7.72;4.85;;;11.50;84.50;;;;;;5070580;28;20028;-52
2023/10/17 03:03:14;;;;;;;9.30;5.30;;;11.40;84.30;;;;;;5088389;28;20097;-52
2023/10/17 03:05:44;;;;;;;10.23;5.22;;;11.50;84.60;;;;;;5088368;28;20196;-52
2023/10/17 03:08:15;;;;;;;8.13;5.28;;;11.50;84.80;;;;;;5070278;28;20538;-52
2023/10/17 03:10:41;;;;;;;8.63;5.00;;;11.40;84.80;;;;;;5071384;28;20024;-52
2023/10/17 03:15:48;;;;;;;9.70;5.40;;;11.40;85.10;;;;;;5072249;28;20036;-52
2023/10/17 03:18:15;;;;;;;9.23;5.63;;;11.40;85.20;;;;;;5088154;28;20021;-52
2023/10/17 03:20:41;;;;;;;9.88;5.75;;;11.40;85.30;;;;;;5070340;28;20047;-52
2023/10/17 03:23:10;;;;;;;12.20;6.45;;;11.40;85.50;;;;;;5070189;28;20029;-52
2023/10/17 03:25:39;;;;;;;9.23;5.40;;;11.50;85.50;;;;;;5070509;28;20024;-52
2023/10/17 03:28:09;;;;;;;9.57;5.35;;;11.30;85.40;;;;;;5087930;28;20059;-52
2023/10/17 03:30:35;;;;;;;9.75;6.07;;;11.30;85.40;;;;;;5069983;28;20496;-52
2023/10/17 03:35:29;;;;;;;12.57;5.72;;;11.30;85.50;;;;;;5070009;28;20095;-52
2023/10/17 03:37:54;;;;;;;8.85;5.75;;;11.30;85.70;;;;;;5070192;28;20036;-52
2023/10/17 03:43:11;;;;;;;10.13;6.25;;;11.30;85.80;;;;;;5072566;28;20542;-52
2023/10/17 03:45:43;;;;;;;8.40;6.18;;;11.20;85.80;;;;;;5087785;28;20028;-52
2023/10/17 03:48:14;;;;;;;10.43;6.57;;;11.20;85.80;;;;;;5070272;28;20025;-52
2023/10/17 03:50:48;;;;;;;10.20;6.40;;;11.20;85.80;;;;;;5070750;28;20025;-52
2023/10/17 03:55:43;;;;;;;12.30;6.25;;;11.20;85.80;;;;;;5087669;28;20033;-52
2023/10/17 03:58:24;;;;;;;10.27;6.60;;;11.10;85.80;;;;;;5069651;28;20103;-52
2023/10/17 04:00:53;;;;;;;7.20;5.95;;;11.20;85.90;;;;;;5071705;28;20036;-52
2023/10/17 04:03:21;;;;;;;11.90;5.93;;;11.20;85.90;;;;;;5069531;28;20028;-52
2023/10/17 04:05:53;;;;;;;10.10;6.70;;;11.10;85.90;;;;;;5087309;28;20020;-52
2023/10/17 04:08:19;;;;;;;7.30;5.95;;;11.10;85.90;;;;;;5069451;28;20036;-52
2023/10/17 04:10:53;;;;;;;11.13;6.35;;;11.10;85.90;;;;;;5087140;28;20481;-52
2023/10/17 04:13:34;;;;;;;10.00;6.50;;;11.00;85.90;;;;;;5070398;28;20024;-52
2023/10/17 04:16:00;;;;;;;10.25;6.10;;;11.00;85.90;;;;;;5071382;28;20027;-52
2023/10/17 04:18:25;;;;;;;10.93;5.65;;;11.00;85.90;;;;;;5069067;28;20060;-52
2023/10/17 04:20:58;;;;;;;7.88;6.93;;;11.00;85.90;;;;;;5086817;28;20038;-51
2023/10/17 04:23:26;;;;;;;11.38;6.35;;;11.00;85.90;;;;;;5070087;28;20051;-52
2023/10/17 04:25:55;;;;;;;8.88;7.57;;;10.90;85.80;;;;;;5069393;28;20024;-52
2023/10/17 04:28:26;;;;;;;11.15;6.65;;;11.00;85.90;;;;;;5069538;28;20020;-52
2023/10/17 04:30:56;;;;;;;9.00;7.32;;;10.90;85.90;;;;;;5069714;28;20020;-52
2023/10/17 04:33:22;;;;;;;10.85;6.90;;;10.90;86.00;;;;;;5069516;28;20021;-52
2023/10/17 04:35:47;;;;;;;8.93;6.93;;;10.90;86.10;;;;;;5068751;28;20028;-52
2023/10/17 04:38:26;;;;;;;7.53;6.20;;;10.90;86.20;;;;;;5068759;28;20042;-52
2023/10/17 04:41:13;;;;;;;8.20;6.68;;;10.80;86.10;;;;;;5070552;28;20032;-52
2023/10/17 04:46:49;;;;;;;7.90;6.90;;;10.80;86.20;;;;;;5073245;28;20485;-52
2023/10/17 04:49:18;;;;;;;9.73;7.05;;;10.80;86.30;;;;;;5070935;28;20044;-52
2023/10/17 04:51:44;;;;;;;9.40;6.68;;;10.80;86.30;;;;;;5086225;28;20036;-53
2023/10/17 04:57:04;;;;;;;7.55;6.38;;;10.70;86.30;;;;;;5086254;28;20052;-52
2023/10/17 05:07:27;;;;;;;8.02;6.15;;;10.70;86.30;;;;;;5069598;28;20119;-52
2023/10/17 06:18:26;;;;;;;7.82;6.75;;;10.40;86.90;;;;;;5086114;28;20032;-52
2023/10/17 06:21:07;;;;;;;10.07;6.55;;;10.40;87.00;;;;;;5074981;28;20025;-52
2023/10/17 06:26:39;;;;;;;14.20;7.28;;;10.30;87.10;;;;;;5067916;28;20036;-52
2023/10/17 06:29:44;;;;;;;9.45;7.15;;;10.30;87.20;;;;;;5070882;28;20025;-52
2023/10/17 06:31:54;;;;;;;9.73;7.15;;;10.20;87.20;;;;;;5053238;28;20040;-52
2023/10/17 06:34:20;;;;;;;13.13;7.30;;;10.30;87.30;;;;;;5068134;28;20036;-52
2023/10/17 06:36:50;;;;;;;9.30;6.97;;;10.30;87.30;;;;;;5051041;28;20037;-52
2023/10/17 06:39:19;;;;;;;11.90;7.85;;;10.30;87.40;;;;;;5068839;28;20079;-52
2023/10/17 06:41:45;;;;;;;13.20;8.40;;;10.30;87.50;;;;;;5051328;28;20396;-52
2023/10/17 06:44:16;;;;;;;11.95;8.40;;;10.30;87.50;;;;;;5051000;28;20028;-52
2023/10/17 06:46:55;;;;;;;12.38;8.45;;;10.30;87.50;;;;;;5033949;28;20044;-52
2023/10/17 06:54:43;;;;;;;13.50;8.90;;;10.30;87.70;;;;;;5067496;28;20037;-52
2023/10/17 06:57:24;;;;;;;9.95;8.27;;;10.30;87.70;;;;;;5050541;28;20043;-52
2023/10/17 06:59:51;;;;;;;12.75;8.70;;;10.40;87.80;;;;;;5067388;28;20120;-52
2023/10/17 07:02:30;;;;;;;15.15;9.40;;;10.40;87.90;;;;;;5050361;28;20094;-52
2023/10/17 07:04:59;;;;;;;19.23;9.55;;;10.40;88.00;;;;;;5051951;28;20025;-52
2023/10/17 07:07:31;;;;;;;24.75;9.80;;;10.40;88.10;;;;;;5050685;28;20029;-52
2023/10/17 07:12:41;;;;;;;21.77;10.05;;;10.40;88.20;;;;;;5053078;28;20040;-52
2023/10/17 07:15:13;;;;;;;23.70;10.48;;;10.40;88.20;;;;;;5049733;28;20112;-53
2023/10/17 07:17:48;;;;;;;29.42;11.57;;;10.50;88.50;;;;;;5051002;28;20029;-52
2023/10/17 07:20:29;;;;;;;41.15;12.02;;;10.50;88.50;;;;;;5067955;28;20029;-53
2023/10/17 07:22:57;;;;;;;30.48;10.55;;;10.50;88.80;;;;;;5054066;28;20567;-52
2023/10/17 07:25:22;;;;;;;30.38;11.23;;;10.50;88.70;;;;;;5050357;28;20037;-52
2023/10/17 07:27:49;;;;;;;29.73;10.68;;;10.50;88.60;;;;;;5068045;28;20017;-52
2023/10/17 07:30:27;;;;;;;27.85;10.98;;;10.50;88.60;;;;;;5050261;28;20036;-52
2023/10/17 07:32:56;;;;;;;30.80;12.35;;;10.50;88.60;;;;;;5051804;28;20041;-52
2023/10/17 07:35:24;;;;;;;73.15;14.80;;;10.50;88.50;;;;;;5067526;28;20040;-52
2023/10/17 07:37:54;;;;;;;28.75;10.68;;;10.50;88.60;;;;;;5033779;28;20032;-52
2023/10/17 07:40:23;;;;;;;24.13;10.77;;;10.60;88.60;;;;;;5050247;28;20020;-52
2023/10/17 07:42:49;;;;;;;22.40;10.82;;;10.60;88.50;;;;;;5050250;28;20110;-51
2023/10/17 07:45:15;;;;;;;17.85;10.93;;;10.60;88.50;;;;;;5049297;28;20453;-52
2023/10/17 07:47:51;;;;;;;23.15;10.90;;;10.50;88.50;;;;;;5051317;28;20043;-52
2023/10/17 07:50:16;;;;;;;16.23;10.20;;;10.60;88.60;;;;;;5065471;28;20032;-53
2023/10/17 07:52:50;;;;;;;21.17;10.88;;;10.50;88.50;;;;;;5049365;28;20116;-52
2023/10/17 07:55:22;;;;;;;25.90;11.02;;;10.60;88.60;;;;;;5048978;28;20051;-52
2023/10/17 07:57:52;;;;;;;17.63;10.25;;;10.60;88.60;;;;;;5044830;28;20085;-52
2023/10/17 08:00:26;;;;;;;15.50;10.73;;;10.60;88.60;;;;;;5057055;28;20033;-52
2023/10/17 08:02:52;;;;;;;17.05;10.30;;;10.60;88.70;;;;;;5069132;28;20142;-52
2023/10/17 08:05:26;;;;;;;20.02;10.38;;;10.60;88.80;;;;;;5087157;28;20024;-52
2023/10/17 08:08:03;;;;;;;19.90;10.77;;;10.60;88.90;;;;;;5048585;28;20588;-52
2023/10/17 08:10:35;;;;;;;16.95;10.55;;;10.60;88.90;;;;;;5065380;28;20051;-53
2023/10/17 08:13:02;;;;;;;18.90;10.57;;;10.60;88.90;;;;;;5031616;28;20021;-52
2023/10/17 08:15:38;;;;;;;20.25;10.20;;;10.60;88.90;;;;;;5064038;28;20036;-52
2023/10/17 08:18:05;;;;;;;21.42;9.57;;;10.70;88.90;;;;;;5042084;28;20085;-52
2023/10/17 08:23:12;;;;;;;20.65;11.25;;;10.70;89.10;;;;;;5071206;28;20036;-52
2023/10/17 08:25:53;;;;;;;28.45;11.40;;;10.70;89.20;;;;;;5052090;28;20388;-52
2023/10/17 08:28:46;;;;;;;20.45;11.45;;;10.70;89.00;;;;;;5068854;28;20017;-52
2023/10/17 08:31:27;;;;;;;29.92;12.25;;;10.70;89.00;;;;;;5062374;28;20056;-52
2023/10/17 08:39:26;;;;;;;22.70;11.00;;;10.80;89.00;;;;;;5053136;28;20032;-52
2023/10/17 08:41:53;;;;;;;30.35;12.27;;;10.80;89.10;;;;;;5084515;28;20028;-51
2023/10/17 08:44:21;;;;;;;23.23;11.90;;;10.80;89.10;;;;;;5093837;28;20028;-52
2023/10/17 08:46:48;;;;;;;22.30;11.35;;;10.80;89.10;;;;;;5069589;28;20036;-52
2023/10/17 08:49:15;;;;;;;23.38;12.13;;;10.80;89.10;;;;;;5068472;28;20066;-52
2023/10/17 08:51:41;;;;;;;21.25;10.55;;;10.90;89.20;;;;;;5047585;28;20037;-52
2023/10/17 08:54:07;;;;;;;23.40;11.32;;;10.90;89.10;;;;;;5070515;28;20051;-52
2023/10/17 08:56:36;;;;;;;26.00;13.07;;;11.00;89.20;;;;;;5083248;28;20063;-52
2023/10/17 08:59:05;;;;;;;23.38;11.15;;;10.90;89.10;;;;;;5082112;28;20050;-52
2023/10/17 09:01:30;;;;;;;25.58;11.77;;;10.90;89.20;;;;;;5071734;28;20047;-52
2023/10/17 09:03:56;;;;;;;21.95;11.50;;;11.00;89.20;;;;;;5069319;28;20036;-52
2023/10/17 09:08:56;;;;;;;34.15;11.48;;;11.00;89.20;;;;;;5055810;28;20111;-52
2023/10/17 09:11:29;;;;;;;37.28;12.88;;;11.00;89.20;;;;;;5069215;28;20035;-52
2023/10/17 09:16:48;;;;;;;27.55;11.52;;;11.00;89.60;;;;;;5062599;28;20604;-52
2023/10/17 09:19:14;;;;;;;48.25;12.00;;;11.10;89.80;;;;;;5068864;28;20197;-52
2023/10/17 09:21:44;;;;;;;35.72;11.93;;;11.10;89.70;;;;;;5066586;28;20143;-52
2023/10/17 09:24:51;;;;;;;31.17;11.98;;;11.10;89.60;;;;;;5054461;28;20099;-52
2023/10/17 09:27:18;;;;;;;34.40;11.68;;;11.10;89.60;;;;;;5031266;28;20381;-52
2023/10/17 09:29:55;;;;;;;24.88;11.82;;;11.10;89.70;;;;;;5062065;28;20029;-52
2023/10/17 09:32:38;;;;;;;21.45;11.90;;;11.20;89.70;;;;;;5082707;28;20029;-52
2023/10/17 09:35:14;;;;;;;26.05;11.55;;;11.20;89.60;;;;;;5078297;28;20081;-52
2023/10/17 09:37:43;;;;;;;38.30;12.10;;;11.20;89.50;;;;;;5048868;28;20079;-53
2023/10/17 09:40:13;;;;;;;32.00;11.68;;;11.20;89.60;;;;;;5048435;28;20497;-52
2023/10/17 09:42:46;;;;;;;30.95;12.05;;;11.20;89.50;;;;;;5069856;28;20028;-52
2023/10/17 09:45:13;;;;;;;22.85;10.82;;;11.30;89.60;;;;;;5069635;28;20020;-52
2023/10/17 09:47:44;;;;;;;26.58;11.63;;;11.30;89.40;;;;;;5084393;28;20112;-52
2023/10/17 09:50:17;;;;;;;18.95;10.75;;;11.30;89.30;;;;;;5051001;28;20033;-52
2023/10/17 09:52:48;;;;;;;35.47;11.52;;;11.30;89.30;;;;;;5049361;28;20029;-52
2023/10/17 09:55:16;;;;;;;23.98;10.98;;;11.40;89.30;;;;;;5060812;28;20054;-52
2023/10/17 09:57:45;;;;;;;24.30;10.50;;;11.40;89.30;;;;;;5070659;28;20028;-52
2023/10/17 10:00:30;;;;;;;22.05;11.20;;;11.40;89.30;;;;;;5062660;28;20035;-52
2023/10/17 10:02:56;;;;;;;25.92;11.07;;;11.40;89.30;;;;;;5056750;28;20036;-52
2023/10/17 10:05:28;;;;;;;29.23;10.57;;;11.50;89.30;;;;;;5083082;28;20064;-52
2023/10/17 10:08:01;;;;;;;21.63;10.70;;;11.50;89.20;;;;;;5069748;28;20020;-52
2023/10/17 10:10:56;;;;;;;22.65;11.57;;;11.50;89.30;;;;;;5072068;28;20089;-52
2023/10/17 10:13:22;;;;;;;28.95;11.80;;;11.50;89.50;;;;;;5050238;28;20024;-52
2023/10/17 10:16:04;;;;;;;20.48;11.10;;;11.50;89.50;;;;;;5081002;28;20046;-52
2023/10/17 10:18:35;;;;;;;23.67;11.10;;;11.60;89.60;;;;;;5086134;28;20100;-52
2023/10/17 10:21:04;;;;;;;22.55;10.75;;;11.60;89.80;;;;;;5069771;28;20035;-52
2023/10/17 10:23:35;;;;;;;25.05;11.95;;;11.60;89.80;;;;;;5087667;28;20028;-52
2023/10/17 10:26:27;;;;;;;20.83;11.23;;;11.60;89.70;;;;;;5086583;28;20543;-52
2023/10/17 10:28:52;;;;;;;22.23;11.25;;;11.60;89.70;;;;;;5067326;28;20056;-52
2023/10/17 10:31:21;;;;;;;22.38;10.18;;;11.70;89.80;;;;;;5073399;28;20043;-52
2023/10/17 10:33:53;;;;;;;25.70;11.05;;;11.80;89.90;;;;;;5100988;28;20024;-51
2023/10/17 10:36:19;;;;;;;28.75;11.95;;;11.80;89.90;;;;;;5073325;28;20024;-52
2023/10/17 10:38:45;;;;;;;22.02;10.95;;;11.80;89.80;;;;;;5063885;28;20063;-52
2023/10/17 10:41:13;;;;;;;29.63;12.15;;;11.90;89.80;;;;;;5088705;28;20032;-52
2023/10/17 10:43:41;;;;;;;31.45;11.70;;;11.90;89.90;;;;;;5074319;28;20039;-52
2023/10/17 10:46:10;;;;;;;28.17;12.00;;;11.90;89.80;;;;;;5090452;28;20414;-50
2023/10/17 10:48:38;;;;;;;30.02;12.07;;;11.90;89.70;;;;;;5090433;28;20209;-52
2023/10/17 10:51:04;;;;;;;20.52;11.38;;;12.00;90.00;;;;;;5035881;28;20033;-52
2023/10/17 10:53:36;;;;;;;31.80;12.15;;;12.00;90.00;;;;;;5069987;28;20016;-52
2023/10/17 10:56:02;;;;;;;29.83;12.48;;;12.10;90.00;;;;;;5083218;28;20082;-52
2023/10/17 10:58:29;;;;;;;31.83;12.27;;;12.10;90.00;;;;;;5076123;28;20025;-52
2023/10/17 11:00:58;;;;;;;47.38;13.27;;;12.10;90.00;;;;;;5066347;28;20044;-52
2023/10/17 11:03:24;;;;;;;33.63;12.68;;;12.10;89.90;;;;;;5044722;28;20029;-52
2023/10/17 11:06:03;;;;;;;27.98;12.18;;;12.20;89.90;;;;;;5049687;28;20027;-52
2023/10/17 11:08:36;;;;;;;27.30;11.85;;;12.20;89.80;;;;;;5050083;28;20021;-52
2023/10/17 11:11:03;;;;;;;40.90;14.82;;;12.20;90.10;;;;;;5049709;28;20033;-52
2023/10/17 11:13:34;;;;;;;46.05;14.48;;;12.20;89.80;;;;;;5055583;28;20052;-52
2023/10/17 11:15:59;;;;;;;41.95;13.73;;;12.20;89.80;;;;;;5071951;28;20156;-53
2023/10/17 11:18:25;;;;;;;42.45;13.35;;;12.30;89.90;;;;;;5072750;28;20055;-52
2023/10/17 11:20:55;;;;;;;40.28;13.23;;;12.30;89.80;;;;;;5056395;28;20111;-52
2023/10/17 11:23:22;;;;;;;44.03;15.77;;;12.40;89.80;;;;;;5089935;28;20054;-52
2023/10/17 11:25:48;;;;;;;45.67;14.50;;;12.30;89.70;;;;;;5053511;28;20087;-52
2023/10/17 11:28:16;;;;;;;49.85;14.13;;;12.40;89.70;;;;;;5046689;28;20025;-52
2023/10/17 11:30:42;;;;;;;48.13;13.40;;;12.40;89.60;;;;;;5087453;28;20115;-52
2023/10/17 11:33:11;;;;;;;45.53;13.68;;;12.40;89.60;;;;;;5089617;28;20096;-52
2023/10/17 11:35:51;;;;;;;46.30;14.05;;;12.40;89.60;;;;;;5090168;28;20032;-52
2023/10/17 11:38:37;;;;;;;42.70;13.98;;;12.40;89.50;;;;;;5107832;28;20027;-52
2023/10/17 11:41:04;;;;;;;63.42;16.27;;;12.40;89.60;;;;;;5090050;28;20066;-52
2023/10/17 11:43:34;;;;;;;48.20;15.05;;;12.40;90.00;;;;;;5088774;28;20024;-52
2023/10/17 11:46:03;;;;;;;41.65;15.32;;;12.50;90.00;;;;;;5073316;28;20127;-52
2023/10/17 11:48:35;;;;;;;47.53;14.88;;;12.50;90.00;;;;;;5089270;28;20031;-52
2023/10/17 11:51:13;;;;;;;52.72;14.15;;;12.60;90.00;;;;;;5064307;28;20021;-53
2023/10/17 11:54:04;;;;;;;33.53;14.10;;;12.60;89.90;;;;;;5101286;28;20080;-51
2023/10/17 11:56:37;;;;;;;42.85;14.23;;;12.60;89.80;;;;;;5101502;28;20016;-52
2023/10/17 11:59:06;;;;;;;43.55;14.35;;;12.70;89.70;;;;;;5086334;28;20050;-52
2023/10/17 12:01:34;;;;;;;38.60;14.68;;;12.70;89.60;;;;;;5087081;28;20078;-52
2023/10/17 12:04:05;;;;;;;48.10;16.58;;;12.70;89.60;;;;;;5069756;28;20023;-52
2023/10/17 12:06:30;;;;;;;50.05;15.80;;;12.80;89.90;;;;;;5071896;28;20036;-52
2023/10/17 12:08:56;;;;;;;45.00;14.52;;;12.80;90.00;;;;;;5081636;28;20024;-52
2023/10/17 12:11:24;;;;;;;46.20;14.68;;;12.80;89.80;;;;;;5080615;28;20036;-53
2023/10/17 12:13:51;;;;;;;43.42;14.70;;;12.80;89.70;;;;;;5069470;28;20035;-52
2023/10/17 12:16:17;;;;;;;37.40;14.80;;;12.90;89.70;;;;;;5072384;28;20020;-52
2023/10/17 12:18:44;;;;;;;40.75;14.68;;;12.90;89.80;;;;;;5083797;28;20084;-52
2023/10/17 12:21:14;;;;;;;50.47;15.15;;;12.90;89.70;;;;;;5088899;28;20047;-52
2023/10/17 12:23:40;;;;;;;39.45;14.57;;;12.90;89.80;;;;;;5087205;28;20031;-52
2023/10/17 12:26:14;;;;;;;57.28;14.57;;;13.00;89.90;;;;;;5050245;28;20044;-52
2023/10/17 12:28:42;;;;;;;52.60;15.73;;;13.00;90.20;;;;;;5083182;28;20055;-52
2023/10/17 12:31:09;;;;;;;44.35;15.30;;;13.00;89.80;;;;;;5070711;28;20040;-52
2023/10/17 12:33:36;;;;;;;59.30;16.35;;;13.00;89.70;;;;;;5058790;28;20062;-52
2023/10/17 12:36:05;;;;;;;61.83;17.15;;;13.10;89.70;;;;;;5085402;28;20028;-52
2023/10/17 12:38:34;;;;;;;49.88;15.68;;;13.00;89.60;;;;;;5087392;28;20024;-52
2023/10/17 12:41:03;;;;;;;74.05;16.05;;;13.10;89.80;;;;;;5071105;28;20058;-52
2023/10/17 12:43:28;;;;;;;79.68;16.77;;;13.10;89.80;;;;;;5055896;28;20024;-52
2023/10/17 12:45:54;;;;;;;62.97;15.23;;;13.10;90.10;;;;;;5105335;28;20092;-52
2023/10/17 12:48:20;;;;;;;76.47;18.73;;;13.20;89.90;;;;;;5084774;28;20028;-52
2023/10/17 12:50:45;;;;;;;79.80;17.55;;;13.20;89.90;;;;;;5103844;28;20032;-53
2023/10/17 12:53:11;;;;;;;79.60;17.65;;;13.20;90.00;;;;;;5072731;28;20078;-52
2023/10/17 12:55:38;;;;;;;85.18;18.35;;;13.20;90.00;;;;;;5084027;28;20032;-52
2023/10/17 12:58:29;;;;;;;66.07;16.95;;;13.30;90.00;;;;;;5066385;28;20050;-52
2023/10/17 13:00:52;;;;;;;76.20;18.15;;;13.30;90.00;;;;;;5085456;28;20094;-52
2023/10/17 13:03:18;;;;;;;110.60;20.45;;;13.30;90.00;;;;;;5099738;28;20031;-52
2023/10/17 13:05:44;;;;;;;95.57;20.08;;;13.40;90.00;;;;;;5103200;28;20141;-52
2023/10/17 13:08:10;;;;;;;85.75;17.67;;;13.40;90.10;;;;;;5080253;28;20023;-52
2023/10/17 13:10:35;;;;;;;65.22;17.70;;;13.40;90.10;;;;;;5078272;28;20028;-52
2023/10/17 13:13:01;;;;;;;75.45;18.63;;;13.50;90.00;;;;;;5096319;28;20080;-52
2023/10/17 13:15:26;;;;;;;74.15;17.27;;;13.50;89.90;;;;;;5069303;28;20021;-52
2023/10/17 13:17:55;;;;;;;79.72;16.45;;;13.50;89.80;;;;;;5067022;28;20032;-52
2023/10/17 13:20:32;;;;;;;69.57;16.73;;;13.60;89.80;;;;;;5058094;28;20032;-53
2023/10/17 13:23:03;;;;;;;81.82;18.35;;;13.60;89.80;;;;;;5070358;28;20029;-52
2023/10/17 13:25:36;;;;;;;73.30;17.38;;;13.60;89.80;;;;;;5072715;28;20051;-52
2023/10/17 13:28:05;;;;;;;77.13;18.08;;;13.60;90.00;;;;;;5098727;28;20024;-52
2023/10/17 13:30:31;;;;;;;61.00;16.67;;;13.70;89.90;;;;;;5070542;28;20025;-52
2023/10/17 13:32:57;;;;;;;78.50;18.55;;;13.70;89.80;;;;;;5094126;28;20074;-52
2023/10/17 13:35:23;;;;;;;83.90;18.08;;;13.70;89.60;;;;;;5070105;28;20108;-52
2023/10/17 13:37:52;;;;;;;57.20;16.63;;;13.80;89.60;;;;;;5068458;28;20554;-52
2023/10/17 13:40:19;;;;;;;74.18;17.15;;;13.80;89.60;;;;;;5070452;28;20016;-52
2023/10/17 13:42:46;;;;;;;77.88;16.95;;;13.90;89.50;;;;;;5052610;28;20047;-52
2023/10/17 13:45:13;;;;;;;83.22;16.20;;;13.90;89.50;;;;;;5077444;28;20055;-52
2023/10/17 13:47:40;;;;;;;78.90;17.77;;;13.90;89.50;;;;;;5075104;28;20028;-52
2023/10/17 13:50:06;;;;;;;66.65;16.27;;;14.00;89.40;;;;;;5071363;28;20471;-52
2023/10/17 13:52:32;;;;;;;76.70;16.23;;;14.00;89.30;;;;;;5074561;28;20067;-52
2023/10/17 13:54:58;;;;;;;67.43;15.48;;;14.00;89.30;;;;;;5060239;28;20032;-52
2023/10/17 13:57:29;;;;;;;72.45;17.50;;;14.00;89.30;;;;;;5067648;28;20062;-52
2023/10/17 13:59:55;;;;;;;83.10;17.90;;;14.10;89.50;;;;;;5090635;28;20054;-52
2023/10/17 14:02:21;;;;;;;83.13;18.30;;;14.10;89.40;;;;;;5073496;28;20036;-52
2023/10/17 14:04:47;;;;;;;80.70;16.48;;;14.10;89.40;;;;;;5075326;28;20036;-52
2023/10/17 14:07:13;;;;;;;61.15;15.02;;;14.10;89.30;;;;;;5068148;28;20029;-52
2023/10/17 14:09:42;;;;;;;49.08;13.98;;;14.10;89.20;;;;;;5055068;28;20031;-52
2023/10/17 14:12:08;;;;;;;67.78;15.68;;;14.10;89.10;;;;;;5057651;28;20028;-52
2023/10/17 14:14:35;;;;;;;77.07;14.85;;;14.10;89.10;;;;;;5072039;28;20036;-53
2023/10/17 14:17:01;;;;;;;77.72;15.50;;;14.20;89.30;;;;;;5071252;28;20051;-52
2023/10/17 14:22:21;;;;;;;53.63;14.05;;;14.40;89.20;;;;;;5065386;28;20112;-51
2023/10/17 14:27:15;;;;;;;60.83;15.30;;;14.30;89.10;;;;;;5075370;28;20118;-51
2023/10/17 14:29:45;;;;;;;64.13;16.30;;;14.30;89.10;;;;;;5075348;28;20029;-52
2023/10/17 14:32:10;;;;;;;60.05;15.23;;;14.30;89.20;;;;;;5090512;28;20108;-52
2023/10/17 14:34:37;;;;;;;66.65;14.98;;;14.30;89.10;;;;;;5078957;28;20035;-52
2023/10/17 14:37:05;;;;;;;67.95;14.55;;;14.40;88.90;;;;;;5075838;28;20032;-52
2023/10/17 14:39:31;;;;;;;69.68;14.85;;;14.40;88.80;;;;;;5058043;28;20119;-52
2023/10/17 14:41:57;;;;;;;79.38;15.57;;;14.50;88.90;;;;;;5058657;28;20023;-52
2023/10/17 14:44:23;;;;;;;63.22;14.85;;;14.50;88.70;;;;;;5093409;28;20032;-52
2023/10/17 14:46:49;;;;;;;67.88;14.98;;;14.50;88.60;;;;;;5089296;28;20024;-52
2023/10/17 14:49:15;;;;;;;60.63;15.13;;;14.50;88.60;;;;;;5056983;28;20110;-52
2023/10/17 14:51:41;;;;;;;64.30;15.05;;;14.60;88.80;;;;;;5074509;28;20032;-52
2023/10/17 14:54:09;;;;;;;69.10;16.25;;;14.50;88.80;;;;;;5089157;28;20125;-52
2023/10/17 14:56:36;;;;;;;71.60;14.10;;;14.60;88.80;;;;;;5092655;28;20031;-52